Time;durP1;ratioP1;P1;durP2;ratioP2;P2;SDS_P1;SDS_P2;PMS_P1;PMS_P2;Temp;Humidity;BMP_temperature;BMP_pressure;BME280_temperature;BME280_humidity;BME280_pressure;Samples;Min_cycle;Max_cycle;Signal;HPM_P1;HPM_P2
2022/11/02 00:02:18;;;;;;;5.43;1.77;;;12.20;99.90;;;;;;4943186;28;20353;-66
2022/11/02 00:04:45;;;;;;;5.15;1.95;;;12.20;99.90;;;;;;4967281;28;22424;-64
2022/11/02 00:07:12;;;;;;;6.47;1.48;;;12.20;99.90;;;;;;4937273;28;20349;-64
2022/11/02 00:09:40;;;;;;;12.27;2.13;;;12.20;99.90;;;;;;4953245;28;20227;-64
2022/11/02 00:12:07;;;;;;;8.10;1.73;;;12.20;99.90;;;;;;4954251;28;20196;-67
2022/11/02 00:14:34;;;;;;;5.00;1.38;;;12.20;99.90;;;;;;4951458;28;20214;-64
2022/11/02 00:17:01;;;;;;;2.92;1.42;;;12.20;99.90;;;;;;4952272;28;20207;-64
2022/11/02 00:19:29;;;;;;;5.55;1.33;;;12.20;99.90;;;;;;4956220;28;20811;-64
2022/11/02 00:21:57;;;;;;;3.70;1.52;;;12.20;99.90;;;;;;4950344;28;20235;-65
2022/11/02 00:24:24;;;;;;;3.25;1.63;;;12.20;99.90;;;;;;4952679;28;20994;-64
2022/11/02 00:26:53;;;;;;;7.28;1.83;;;12.20;99.90;;;;;;4960163;28;20236;-63
2022/11/02 00:29:22;;;;;;;5.03;1.80;;;12.30;99.90;;;;;;4943371;28;20210;-64
2022/11/02 00:31:49;;;;;;;8.48;1.98;;;12.20;99.90;;;;;;4967085;28;20227;-63
2022/11/02 00:34:16;;;;;;;6.43;1.80;;;12.20;99.90;;;;;;4950845;28;20207;-64
2022/11/02 00:36:42;;;;;;;10.43;1.60;;;12.20;99.90;;;;;;4945089;28;20289;-64
2022/11/02 00:39:09;;;;;;;6.65;1.70;;;12.30;99.90;;;;;;4958781;28;20216;-64
2022/11/02 00:41:36;;;;;;;6.90;1.92;;;12.30;99.90;;;;;;4958334;28;20251;-64
2022/11/02 00:44:04;;;;;;;6.63;3.40;;;12.30;99.90;;;;;;4965461;28;20219;-64
2022/11/02 00:46:31;;;;;;;7.25;2.00;;;12.30;99.90;;;;;;4945363;28;20812;-64
2022/11/02 00:48:58;;;;;;;4.45;1.45;;;12.30;99.90;;;;;;4955319;28;20937;-64
2022/11/02 00:51:25;;;;;;;3.22;1.30;;;12.40;99.90;;;;;;4937088;28;20233;-64
2022/11/02 00:53:52;;;;;;;8.40;1.85;;;12.40;99.90;;;;;;4955949;28;20571;-64
2022/11/02 00:56:18;;;;;;;6.68;1.55;;;12.40;99.90;;;;;;4946138;28;20212;-64
2022/11/02 00:58:45;;;;;;;6.13;1.60;;;12.50;99.90;;;;;;4967455;28;20223;-63
2022/11/02 01:01:14;;;;;;;10.40;1.92;;;12.50;99.90;;;;;;4942306;28;20203;-64
2022/11/02 01:03:40;;;;;;;5.22;1.60;;;12.50;99.90;;;;;;4964800;28;20591;-64
2022/11/02 01:06:09;;;;;;;6.70;1.70;;;12.50;99.90;;;;;;4947706;28;20219;-65
2022/11/02 01:08:36;;;;;;;3.75;1.25;;;12.40;99.90;;;;;;4955999;28;20207;-63
2022/11/02 01:11:10;;;;;;;10.18;1.75;;;12.60;99.90;;;;;;4958289;28;20227;-64
2022/11/02 01:17:01;;;;;;;4.22;1.60;;;12.60;99.90;;;;;;4950341;28;20219;-65
2022/11/02 01:19:28;;;;;;;5.07;1.70;;;12.50;99.90;;;;;;4965325;28;20223;-65
2022/11/02 01:21:54;;;;;;;8.57;2.05;;;12.40;99.90;;;;;;4931883;28;20235;-64
2022/11/02 01:24:21;;;;;;;9.07;1.63;;;12.40;99.90;;;;;;4954549;28;20224;-64
2022/11/02 01:26:50;;;;;;;8.35;2.08;;;12.30;99.90;;;;;;4944576;28;20613;-64
2022/11/02 01:29:17;;;;;;;8.68;1.80;;;12.20;99.90;;;;;;4950998;28;20226;-64
2022/11/02 01:31:44;;;;;;;4.93;1.58;;;12.30;99.90;;;;;;4938043;28;20245;-65
2022/11/02 01:34:12;;;;;;;6.90;2.15;;;12.20;99.90;;;;;;4958974;28;20223;-64
2022/11/02 01:36:39;;;;;;;8.48;1.48;;;12.10;99.90;;;;;;4948054;28;20232;-64
2022/11/02 01:39:06;;;;;;;6.50;1.77;;;12.10;99.90;;;;;;4938887;28;20227;-64
2022/11/02 01:41:33;;;;;;;8.07;2.15;;;12.10;99.90;;;;;;4949148;28;20234;-64
2022/11/02 01:44:03;;;;;;;11.02;2.15;;;12.10;99.90;;;;;;4964612;28;20207;-64
2022/11/02 01:46:37;;;;;;;6.85;1.67;;;12.10;99.90;;;;;;4938691;28;20199;-65
2022/11/02 01:49:08;;;;;;;6.05;1.58;;;12.10;99.90;;;;;;4957899;28;21323;-64
2022/11/02 01:51:42;;;;;;;8.95;2.05;;;12.10;99.90;;;;;;4945949;28;20238;-63
2022/11/02 01:54:12;;;;;;;4.13;1.30;;;12.10;99.90;;;;;;4938155;28;20227;-64
2022/11/02 01:56:41;;;;;;;9.18;1.63;;;12.10;99.90;;;;;;4943693;28;20262;-64
2022/11/02 01:59:13;;;;;;;8.25;1.70;;;12.10;99.90;;;;;;4950704;28;20724;-64
2022/11/02 02:01:40;;;;;;;8.90;1.65;;;12.10;99.90;;;;;;4930620;28;20226;-64
2022/11/02 02:04:06;;;;;;;7.75;1.67;;;12.10;99.90;;;;;;4956521;28;20219;-64
2022/11/02 02:06:34;;;;;;;10.57;2.15;;;12.10;99.90;;;;;;4951453;28;20208;-65
2022/11/02 02:09:04;;;;;;;10.30;1.63;;;12.20;99.90;;;;;;4938917;28;20227;-65
2022/11/02 02:11:33;;;;;;;6.30;1.75;;;12.10;99.90;;;;;;4956403;28;20274;-64
2022/11/02 02:14:04;;;;;;;10.55;2.33;;;12.20;99.90;;;;;;4956277;28;20610;-64
2022/11/02 02:16:57;;;;;;;5.72;1.55;;;12.20;99.90;;;;;;4950551;28;20195;-64
2022/11/02 02:19:38;;;;;;;7.55;2.45;;;12.20;99.90;;;;;;4946987;28;20233;-64
2022/11/02 02:22:32;;;;;;;10.77;1.90;;;12.20;99.90;;;;;;4947685;28;20713;-64
2022/11/02 02:25:17;;;;;;;5.30;1.60;;;12.10;99.90;;;;;;4921137;28;20978;-64
2022/11/02 02:28:04;;;;;;;6.18;1.73;;;12.10;99.90;;;;;;4934441;28;20239;-65
2022/11/02 02:30:35;;;;;;;4.75;1.60;;;12.10;99.90;;;;;;4951828;28;20238;-64
2022/11/02 02:33:06;;;;;;;8.90;1.80;;;12.00;99.90;;;;;;4939337;28;20206;-64
2022/11/02 02:35:40;;;;;;;9.75;1.88;;;12.00;99.90;;;;;;4963980;28;20216;-64
2022/11/02 02:38:12;;;;;;;4.20;1.55;;;12.00;99.90;;;;;;4954278;28;20203;-64
2022/11/02 02:40:44;;;;;;;10.57;2.05;;;11.90;99.90;;;;;;4935044;28;20204;-64
2022/11/02 02:43:15;;;;;;;5.15;1.70;;;11.90;99.90;;;;;;4945021;28;20238;-64
2022/11/02 02:45:45;;;;;;;7.43;1.77;;;11.80;99.90;;;;;;4954414;28;20223;-64
2022/11/02 02:48:15;;;;;;;5.63;1.67;;;11.80;99.90;;;;;;4930924;28;20226;-64
2022/11/02 02:50:47;;;;;;;4.18;1.35;;;11.80;99.90;;;;;;4962447;28;20195;-64
2022/11/02 02:53:14;;;;;;;6.07;1.73;;;11.80;99.90;;;;;;4954921;28;20604;-64
2022/11/02 02:55:45;;;;;;;5.15;2.33;;;11.80;99.90;;;;;;4950810;28;20213;-64
2022/11/02 02:58:18;;;;;;;10.30;1.73;;;11.80;99.90;;;;;;4945626;28;20220;-64
2022/11/02 03:00:45;;;;;;;7.13;1.85;;;11.90;99.90;;;;;;4949990;28;20203;-64
2022/11/02 03:03:17;;;;;;;6.38;1.80;;;11.90;99.90;;;;;;4965564;28;20234;-64
2022/11/02 03:05:55;;;;;;;11.00;2.13;;;11.90;99.90;;;;;;4934569;28;20226;-64
2022/11/02 03:08:22;;;;;;;7.85;1.65;;;11.90;99.90;;;;;;4954852;28;20219;-63
2022/11/02 03:10:56;;;;;;;5.03;1.45;;;12.00;99.90;;;;;;4956261;28;20270;-64
2022/11/02 03:13:40;;;;;;;13.02;1.55;;;12.00;99.90;;;;;;4939556;28;20235;-64
2022/11/02 03:16:17;;;;;;;5.50;1.80;;;12.00;99.90;;;;;;4952250;28;21119;-63
2022/11/02 03:18:48;;;;;;;6.28;1.60;;;12.00;99.90;;;;;;4964205;28;20207;-64
2022/11/02 03:21:24;;;;;;;10.75;2.17;;;12.00;99.90;;;;;;4949328;28;20560;-64
2022/11/02 03:23:55;;;;;;;10.05;1.77;;;12.10;99.90;;;;;;4947863;28;20324;-64
2022/11/02 03:26:28;;;;;;;4.57;1.27;;;12.10;99.90;;;;;;4945128;28;20238;-64
2022/11/02 03:29:02;;;;;;;7.45;1.80;;;12.10;99.90;;;;;;4928910;28;20238;-64
2022/11/02 03:31:36;;;;;;;6.47;1.90;;;12.20;99.90;;;;;;4948538;28;20211;-63
2022/11/02 03:34:13;;;;;;;7.93;1.77;;;12.20;99.90;;;;;;4959610;28;20222;-64
2022/11/02 03:36:46;;;;;;;6.90;1.88;;;12.20;99.90;;;;;;4956959;28;20198;-64
2022/11/02 03:39:17;;;;;;;5.43;1.88;;;12.30;99.90;;;;;;4952925;28;20208;-64
2022/11/02 03:41:46;;;;;;;6.95;1.58;;;12.30;99.90;;;;;;4956014;28;20215;-64
2022/11/02 03:44:20;;;;;;;6.30;1.35;;;12.40;99.90;;;;;;4942092;28;20235;-64
2022/11/02 03:46:50;;;;;;;4.50;1.52;;;12.40;99.90;;;;;;4949636;28;20230;-64
2022/11/02 03:49:19;;;;;;;2.97;1.38;;;12.50;99.90;;;;;;4962108;28;20235;-65
2022/11/02 03:51:47;;;;;;;4.25;1.40;;;12.60;99.90;;;;;;4938219;28;21101;-63
2022/11/02 03:54:22;;;;;;;5.70;1.70;;;12.60;99.90;;;;;;4958455;28;20211;-64
2022/11/02 03:56:51;;;;;;;3.28;1.30;;;12.60;99.90;;;;;;4970131;28;20210;-64
2022/11/02 03:59:19;;;;;;;5.15;1.45;;;12.60;99.90;;;;;;4936315;28;20674;-64
2022/11/02 04:01:49;;;;;;;5.72;1.48;;;12.70;99.90;;;;;;4968472;28;20215;-63
2022/11/02 04:04:15;;;;;;;8.73;1.73;;;12.70;99.90;;;;;;4966601;28;20238;-64
2022/11/02 04:06:47;;;;;;;8.45;1.80;;;12.60;99.90;;;;;;4944858;28;20231;-64
2022/11/02 04:09:15;;;;;;;7.68;1.50;;;12.60;99.90;;;;;;4961148;28;20220;-64
2022/11/02 04:14:39;;;;;;;3.67;1.45;;;12.60;99.90;;;;;;4930243;28;21068;-64
2022/11/02 04:19:52;;;;;;;7.20;1.50;;;12.70;99.90;;;;;;4964117;28;20221;-63
2022/11/02 04:25:17;;;;;;;5.93;1.45;;;12.70;99.90;;;;;;4964295;28;20210;-64
2022/11/02 04:27:46;;;;;;;8.63;1.70;;;12.70;99.90;;;;;;4961154;28;20238;-64
2022/11/02 04:30:16;;;;;;;11.23;1.70;;;12.70;99.90;;;;;;4929498;28;20274;-64
2022/11/02 04:35:31;;;;;;;5.50;1.50;;;12.70;99.90;;;;;;4962281;28;20287;-64
2022/11/02 04:40:42;;;;;;;3.40;1.48;;;12.70;99.90;;;;;;4950966;28;20255;-64
2022/11/02 04:43:09;;;;;;;9.45;1.48;;;12.70;99.90;;;;;;4954281;28;20249;-64
2022/11/02 04:45:37;;;;;;;3.72;1.33;;;12.70;99.90;;;;;;4934486;28;20234;-64
2022/11/02 04:48:05;;;;;;;3.28;1.40;;;12.60;99.90;;;;;;4950137;28;22251;-64
2022/11/02 04:50:32;;;;;;;6.85;1.60;;;12.60;99.90;;;;;;4953156;28;20576;-64
2022/11/02 04:53:01;;;;;;;4.20;1.48;;;12.50;99.90;;;;;;4936258;28;23028;-64
2022/11/02 04:55:28;;;;;;;2.20;1.20;;;12.50;99.90;;;;;;4966291;28;20227;-64
2022/11/02 04:57:55;;;;;;;3.55;1.40;;;12.40;99.90;;;;;;4952041;28;20207;-64
2022/11/02 05:00:22;;;;;;;2.53;1.42;;;12.40;99.90;;;;;;4925900;28;20234;-65
2022/11/02 05:02:51;;;;;;;2.10;1.15;;;12.40;99.90;;;;;;4942615;28;20231;-64
2022/11/02 05:05:18;;;;;;;3.80;1.10;;;12.40;99.90;;;;;;4946977;28;20227;-64
2022/11/02 05:07:45;;;;;;;4.82;1.20;;;12.30;99.90;;;;;;4917832;28;20222;-64
2022/11/02 05:10:12;;;;;;;3.80;1.58;;;12.30;99.90;;;;;;4964304;28;20203;-64
2022/11/02 05:12:40;;;;;;;3.97;1.08;;;12.20;99.90;;;;;;4953957;28;22071;-64
2022/11/02 05:15:07;;;;;;;2.42;0.98;;;12.10;99.90;;;;;;4939366;28;20233;-64
2022/11/02 05:17:34;;;;;;;2.40;1.20;;;12.10;99.90;;;;;;4951322;28;20694;-64
2022/11/02 05:20:03;;;;;;;2.38;1.00;;;12.10;99.90;;;;;;4970009;28;20226;-64
2022/11/02 05:22:31;;;;;;;5.13;0.90;;;12.10;99.90;;;;;;4920758;28;20302;-65
2022/11/02 05:24:58;;;;;;;3.22;0.80;;;12.10;99.90;;;;;;4958871;28;20760;-64
2022/11/02 05:27:24;;;;;;;1.42;0.75;;;12.00;99.90;;;;;;4950522;28;20480;-64
2022/11/02 05:29:51;;;;;;;0.98;0.90;;;12.00;99.90;;;;;;4941589;28;20757;-64
2022/11/02 05:32:18;;;;;;;1.30;0.73;;;11.90;99.90;;;;;;4929670;28;20219;-64
2022/11/02 05:34:45;;;;;;;2.55;0.80;;;11.90;99.90;;;;;;4945877;28;20232;-65
2022/11/02 05:37:13;;;;;;;3.92;0.95;;;11.90;99.90;;;;;;4956257;28;20238;-64
2022/11/02 05:39:40;;;;;;;4.30;0.98;;;11.80;99.90;;;;;;4935143;28;21269;-65
2022/11/02 05:42:07;;;;;;;1.63;0.70;;;11.80;99.90;;;;;;4952649;28;20222;-65
2022/11/02 05:44:34;;;;;;;3.40;1.00;;;11.80;99.90;;;;;;4950178;28;20231;-64
2022/11/02 05:47:00;;;;;;;4.28;1.20;;;11.70;99.90;;;;;;4928791;28;20238;-65
2022/11/02 05:49:27;;;;;;;4.32;0.90;;;11.70;99.90;;;;;;4964452;28;20236;-64
2022/11/02 05:51:54;;;;;;;2.33;0.90;;;11.70;99.90;;;;;;4961757;28;20215;-67
2022/11/02 05:54:22;;;;;;;2.72;1.00;;;11.70;99.90;;;;;;4941745;28;20212;-64
2022/11/02 05:56:49;;;;;;;3.05;0.65;;;11.70;99.90;;;;;;4963323;28;20227;-64
2022/11/02 05:59:16;;;;;;;1.15;0.98;;;11.70;99.90;;;;;;4943302;28;20204;-64
2022/11/02 06:01:43;;;;;;;4.75;1.20;;;11.70;99.90;;;;;;4941422;28;20224;-64
2022/11/02 06:04:09;;;;;;;2.20;1.30;;;11.70;99.90;;;;;;4929776;28;20242;-64
2022/11/02 06:06:36;;;;;;;2.53;0.80;;;11.70;99.90;;;;;;4945275;28;20219;-64
2022/11/02 06:09:03;;;;;;;2.17;1.20;;;11.80;99.90;;;;;;4944090;28;20226;-64
2022/11/02 06:11:31;;;;;;;8.07;1.42;;;11.70;99.90;;;;;;4931823;28;20234;-64
2022/11/02 06:13:58;;;;;;;1.63;1.00;;;11.80;99.90;;;;;;4959589;28;20204;-64
2022/11/02 06:16:25;;;;;;;4.32;1.75;;;11.80;99.90;;;;;;4970339;28;20247;-64
2022/11/02 06:18:52;;;;;;;1.98;1.40;;;11.70;99.90;;;;;;4945148;28;20739;-64
2022/11/02 06:21:18;;;;;;;2.03;0.90;;;11.70;99.90;;;;;;4971279;28;20603;-64
2022/11/02 06:23:47;;;;;;;3.40;1.13;;;11.70;99.90;;;;;;4956962;28;20245;-64
2022/11/02 06:26:14;;;;;;;4.10;1.02;;;11.70;99.90;;;;;;4954465;28;21055;-65
2022/11/02 06:28:42;;;;;;;3.13;1.35;;;11.60;99.90;;;;;;4988685;28;20315;-63
2022/11/02 06:31:09;;;;;;;5.90;1.92;;;11.70;99.90;;;;;;4978440;28;20305;-64
2022/11/02 06:33:36;;;;;;;5.38;1.02;;;11.60;99.90;;;;;;4992019;28;20280;-64
2022/11/02 06:36:04;;;;;;;3.80;1.15;;;11.60;99.90;;;;;;4970661;28;20238;-64
2022/11/02 06:38:31;;;;;;;3.50;1.60;;;11.60;99.90;;;;;;4991676;28;20583;-64
2022/11/02 06:41:00;;;;;;;5.93;1.33;;;11.60;99.90;;;;;;4989942;28;20233;-64
2022/11/02 06:43:28;;;;;;;4.78;1.42;;;11.60;99.90;;;;;;4969764;28;20330;-64
2022/11/02 06:45:56;;;;;;;4.72;1.67;;;11.60;99.90;;;;;;4979814;28;20194;-64
2022/11/02 06:48:24;;;;;;;5.15;1.27;;;11.60;99.90;;;;;;4992967;28;20225;-64
2022/11/02 06:50:50;;;;;;;3.92;1.23;;;11.60;99.90;;;;;;4972577;28;20207;-64
2022/11/02 06:53:18;;;;;;;6.18;1.48;;;11.60;99.90;;;;;;4991245;28;20202;-64
2022/11/02 06:55:44;;;;;;;4.93;1.40;;;11.70;99.90;;;;;;4990762;28;20203;-64
2022/11/02 06:58:11;;;;;;;5.70;2.03;;;11.70;99.90;;;;;;4963188;28;20222;-64
2022/11/02 07:00:38;;;;;;;7.60;1.20;;;11.70;99.90;;;;;;4990950;28;20200;-64
2022/11/02 07:03:09;;;;;;;3.35;1.40;;;11.80;99.90;;;;;;4961869;28;20231;-64
2022/11/02 07:05:36;;;;;;;4.05;1.23;;;11.80;99.90;;;;;;4965419;28;20559;-64
2022/11/02 07:08:04;;;;;;;5.40;1.77;;;11.80;99.90;;;;;;4981976;28;20208;-64
2022/11/02 07:10:31;;;;;;;5.60;1.30;;;11.80;99.90;;;;;;4985786;28;20673;-64
2022/11/02 07:12:58;;;;;;;5.25;1.35;;;11.80;99.90;;;;;;4989126;28;20195;-63
2022/11/02 07:15:26;;;;;;;9.27;1.88;;;11.80;99.90;;;;;;4967710;28;20202;-64
2022/11/02 07:17:53;;;;;;;4.93;1.65;;;11.80;99.90;;;;;;4978552;28;20207;-64
2022/11/02 07:20:22;;;;;;;5.80;1.98;;;11.90;99.90;;;;;;4982382;28;20870;-65
2022/11/02 07:22:52;;;;;;;6.50;1.63;;;11.90;99.90;;;;;;4978760;28;20202;-64
2022/11/02 07:25:19;;;;;;;5.57;1.55;;;11.90;99.90;;;;;;4982175;28;20203;-64
2022/11/02 07:27:46;;;;;;;7.03;1.52;;;11.90;99.90;;;;;;4962949;28;21115;-64
2022/11/02 07:30:13;;;;;;;4.72;1.30;;;11.90;99.90;;;;;;4951858;28;20587;-65
2022/11/02 07:32:41;;;;;;;6.95;1.67;;;12.00;99.90;;;;;;4956810;28;20223;-64
2022/11/02 07:35:09;;;;;;;8.05;1.80;;;12.00;99.90;;;;;;4957888;28;20207;-64
2022/11/02 07:37:37;;;;;;;5.40;1.90;;;12.00;99.90;;;;;;4949186;28;20222;-64
2022/11/02 07:40:06;;;;;;;6.22;1.60;;;12.00;99.90;;;;;;4962268;28;20203;-64
2022/11/02 07:42:32;;;;;;;2.70;1.20;;;12.10;99.90;;;;;;4969445;28;20199;-64
2022/11/02 07:44:59;;;;;;;8.13;1.50;;;12.10;99.90;;;;;;4947479;28;20235;-64
2022/11/02 07:47:26;;;;;;;4.07;1.20;;;12.10;99.90;;;;;;4959450;28;20215;-65
2022/11/02 07:49:53;;;;;;;3.55;1.23;;;12.10;99.90;;;;;;4959045;28;20211;-64
2022/11/02 07:52:20;;;;;;;3.72;1.70;;;12.10;99.90;;;;;;4953547;28;20700;-65
2022/11/02 07:54:48;;;;;;;5.45;1.50;;;12.10;99.90;;;;;;4966340;28;20200;-64
2022/11/02 07:57:15;;;;;;;4.75;1.38;;;12.10;99.90;;;;;;4958845;28;20203;-64
2022/11/02 07:59:42;;;;;;;6.00;2.00;;;12.20;99.90;;;;;;4949575;28;20593;-64
2022/11/02 08:02:12;;;;;;;4.78;1.65;;;12.20;99.90;;;;;;4960574;28;20211;-64
2022/11/02 08:04:39;;;;;;;7.25;1.55;;;12.20;99.90;;;;;;4958628;28;20321;-64
2022/11/02 08:07:05;;;;;;;6.85;1.67;;;12.30;99.90;;;;;;4950710;28;20211;-64
2022/11/02 08:09:32;;;;;;;6.53;1.60;;;12.30;99.90;;;;;;4967943;28;20199;-64
2022/11/02 08:12:00;;;;;;;12.05;1.92;;;12.30;99.90;;;;;;4959549;28;20255;-64
2022/11/02 08:14:27;;;;;;;5.18;1.88;;;12.30;99.90;;;;;;4954060;28;20207;-65
2022/11/02 08:16:54;;;;;;;9.00;1.33;;;12.30;99.90;;;;;;4963735;28;20228;-63
2022/11/02 08:19:21;;;;;;;5.97;2.00;;;12.40;99.90;;;;;;4971337;28;20741;-64
2022/11/02 08:21:48;;;;;;;7.50;1.90;;;12.40;99.90;;;;;;4960454;28;20935;-64
2022/11/02 08:24:14;;;;;;;2.58;1.30;;;12.40;99.90;;;;;;4948798;28;20596;-64
2022/11/02 08:26:41;;;;;;;11.30;1.77;;;12.40;99.90;;;;;;4961111;28;20231;-64
2022/11/02 08:29:09;;;;;;;7.35;1.60;;;12.50;99.90;;;;;;4961271;28;20212;-64
2022/11/02 08:31:36;;;;;;;7.20;1.63;;;12.60;99.90;;;;;;4934783;28;20204;-64
2022/11/02 08:34:03;;;;;;;7.43;1.40;;;12.60;99.90;;;;;;4968955;28;20203;-64
2022/11/02 08:36:29;;;;;;;9.50;1.73;;;12.70;99.90;;;;;;4959278;28;20207;-64
2022/11/02 08:38:56;;;;;;;5.68;1.63;;;12.70;99.90;;;;;;4953019;28;20212;-64
2022/11/02 08:41:23;;;;;;;7.63;2.15;;;12.60;99.90;;;;;;4973277;28;20214;-64
2022/11/02 08:43:50;;;;;;;6.70;1.42;;;12.50;99.90;;;;;;4963919;28;20233;-64
2022/11/02 08:46:18;;;;;;;6.32;1.48;;;12.60;99.90;;;;;;4949534;28;20207;-64
2022/11/02 08:48:45;;;;;;;6.68;2.20;;;12.70;99.90;;;;;;4971374;28;20291;-65
2022/11/02 08:51:12;;;;;;;10.25;1.75;;;12.70;99.90;;;;;;4960013;28;20811;-64
2022/11/02 08:53:38;;;;;;;6.82;1.65;;;12.70;99.90;;;;;;4970554;28;20207;-64
2022/11/02 08:56:05;;;;;;;8.73;1.90;;;12.70;99.90;;;;;;4948870;28;20222;-65
2022/11/02 08:58:32;;;;;;;12.73;1.92;;;12.70;99.90;;;;;;4960124;28;20200;-64
2022/11/02 09:00:59;;;;;;;9.32;1.38;;;12.60;99.90;;;;;;4954641;28;20281;-64
2022/11/02 09:03:27;;;;;;;6.90;1.90;;;12.60;99.90;;;;;;4961339;28;20203;-64
2022/11/02 09:05:57;;;;;;;3.95;1.55;;;12.60;99.90;;;;;;4975087;28;20214;-65
2022/11/02 09:08:24;;;;;;;7.20;1.98;;;12.60;99.90;;;;;;4961002;28;20210;-64
2022/11/02 09:10:52;;;;;;;14.50;2.25;;;12.70;99.90;;;;;;4953405;28;20937;-64
2022/11/02 09:13:23;;;;;;;7.88;1.52;;;12.70;99.90;;;;;;4972854;28;20214;-64
2022/11/02 09:15:52;;;;;;;6.35;1.40;;;12.70;99.90;;;;;;4948275;28;20973;-64
2022/11/02 09:18:19;;;;;;;4.28;1.17;;;12.70;99.90;;;;;;4969041;28;20290;-64
2022/11/02 09:20:48;;;;;;;3.28;1.20;;;12.70;99.90;;;;;;4968622;28;20270;-64
2022/11/02 09:23:15;;;;;;;2.75;1.20;;;12.60;99.90;;;;;;4958932;28;20211;-63
2022/11/02 09:25:42;;;;;;;6.18;1.50;;;12.60;99.90;;;;;;4949041;28;25145;-64
2022/11/02 09:28:09;;;;;;;3.30;1.17;;;12.70;99.90;;;;;;4976068;28;20196;-64
2022/11/02 09:30:36;;;;;;;5.43;1.73;;;12.60;99.90;;;;;;4948356;28;21171;-64
2022/11/02 09:33:04;;;;;;;6.35;1.67;;;12.60;99.90;;;;;;4973533;28;20568;-64
2022/11/02 09:35:33;;;;;;;5.85;1.52;;;12.60;99.90;;;;;;4970865;28;20211;-64
2022/11/02 09:38:01;;;;;;;5.90;1.20;;;12.60;99.90;;;;;;4961475;28;20208;-67
2022/11/02 09:40:35;;;;;;;6.45;1.42;;;12.50;99.90;;;;;;4957949;28;20203;-65
2022/11/02 09:43:10;;;;;;;4.32;1.10;;;12.50;99.90;;;;;;4972796;28;20200;-64
2022/11/02 09:45:44;;;;;;;7.68;1.23;;;12.50;99.90;;;;;;4947708;28;20242;-64
2022/11/02 09:48:17;;;;;;;2.75;0.77;;;12.50;99.90;;;;;;4970035;28;20203;-64
2022/11/02 09:50:49;;;;;;;3.15;1.50;;;12.50;99.90;;;;;;4969511;28;20206;-65
2022/11/02 09:53:24;;;;;;;2.80;1.25;;;12.40;99.90;;;;;;4962725;28;20204;-64
2022/11/02 09:55:54;;;;;;;4.00;1.23;;;12.50;99.90;;;;;;4950834;28;20217;-64
2022/11/02 09:58:28;;;;;;;9.43;1.35;;;12.50;99.90;;;;;;4972084;28;20208;-64
2022/11/02 10:00:59;;;;;;;6.60;1.23;;;12.60;99.90;;;;;;4938138;28;21037;-64
2022/11/02 10:03:42;;;;;;;5.43;1.17;;;12.60;99.90;;;;;;4970872;28;20750;-64
2022/11/02 10:06:14;;;;;;;4.07;1.00;;;12.70;99.90;;;;;;4968572;28;20206;-64
2022/11/02 10:08:49;;;;;;;4.82;1.10;;;12.70;99.90;;;;;;4961232;28;20203;-64
2022/11/02 10:11:26;;;;;;;3.95;1.10;;;12.80;99.90;;;;;;4953119;28;20207;-65
2022/11/02 10:13:58;;;;;;;4.60;1.20;;;12.90;99.90;;;;;;4969392;28;20203;-64
2022/11/02 10:16:32;;;;;;;9.27;1.30;;;12.90;99.90;;;;;;4952889;28;20231;-64
2022/11/02 10:18:59;;;;;;;3.80;1.23;;;13.00;99.90;;;;;;4968716;28;20199;-64
2022/11/02 10:21:30;;;;;;;4.18;1.17;;;13.00;99.90;;;;;;4968099;28;20204;-64
2022/11/02 10:24:03;;;;;;;7.15;1.25;;;13.00;99.90;;;;;;4956927;28;20246;-65
2022/11/02 10:26:34;;;;;;;3.28;0.98;;;13.00;99.90;;;;;;4951536;28;20238;-65
2022/11/02 10:29:06;;;;;;;5.82;1.45;;;13.00;99.90;;;;;;4969482;28;20208;-64
2022/11/02 10:31:34;;;;;;;7.97;1.48;;;13.00;99.90;;;;;;4969379;28;20199;-65
2022/11/02 10:34:13;;;;;;;6.90;1.50;;;13.00;99.90;;;;;;4947339;28;20227;-64
2022/11/02 10:36:49;;;;;;;5.55;1.23;;;12.90;99.90;;;;;;4968397;28;20203;-64
2022/11/02 10:39:30;;;;;;;5.72;1.05;;;12.90;99.90;;;;;;4962258;28;20226;-64
2022/11/02 10:42:13;;;;;;;8.93;1.35;;;13.00;99.90;;;;;;4951471;28;20239;-65
2022/11/02 10:45:00;;;;;;;7.70;1.50;;;13.00;99.90;;;;;;4968676;28;20227;-65
2022/11/02 10:47:30;;;;;;;3.63;1.30;;;13.10;99.90;;;;;;4971814;28;20195;-64
2022/11/02 10:50:17;;;;;;;8.10;1.17;;;13.20;99.90;;;;;;4949942;28;20207;-64
2022/11/02 10:52:46;;;;;;;5.20;1.02;;;13.30;99.90;;;;;;4968775;28;20314;-64
2022/11/02 10:55:26;;;;;;;6.03;1.42;;;13.30;99.90;;;;;;4956654;28;20206;-64
2022/11/02 10:57:55;;;;;;;3.88;0.90;;;13.20;99.90;;;;;;4952260;28;20852;-65
2022/11/02 11:00:28;;;;;;;9.02;1.50;;;13.20;99.90;;;;;;4973565;28;20211;-64
2022/11/02 11:03:07;;;;;;;3.42;1.52;;;13.10;99.90;;;;;;4968382;28;20203;-64
2022/11/02 11:05:36;;;;;;;3.00;1.77;;;13.10;99.90;;;;;;4950909;28;20232;-64
2022/11/02 11:08:03;;;;;;;7.78;2.40;;;13.00;99.90;;;;;;4968763;28;20211;-64
2022/11/02 11:10:37;;;;;;;6.18;1.75;;;13.00;99.90;;;;;;4965135;28;20204;-64
2022/11/02 11:13:06;;;;;;;4.10;1.77;;;13.00;99.90;;;;;;4944948;28;25607;-64
2022/11/02 11:15:34;;;;;;;6.35;1.45;;;13.00;99.90;;;;;;4970522;28;20286;-64
2022/11/02 11:18:12;;;;;;;6.75;1.10;;;13.00;99.90;;;;;;4963229;28;20211;-64
2022/11/02 11:20:40;;;;;;;6.13;1.20;;;13.10;99.90;;;;;;4947608;28;20203;-67
2022/11/02 11:23:25;;;;;;;5.72;1.80;;;13.10;99.90;;;;;;4967078;28;20342;-65
2022/11/02 11:25:59;;;;;;;5.50;1.40;;;13.10;99.90;;;;;;4951644;28;20236;-64
2022/11/02 11:28:29;;;;;;;6.03;1.42;;;13.10;99.90;;;;;;4955507;28;20226;-65
2022/11/02 11:31:09;;;;;;;8.45;3.25;;;13.20;99.90;;;;;;4982476;28;20245;-64
2022/11/02 11:33:43;;;;;;;4.55;1.90;;;13.30;99.90;;;;;;4978244;28;20265;-64
2022/11/02 11:36:19;;;;;;;4.28;1.90;;;13.40;99.90;;;;;;4967706;28;20237;-65
2022/11/02 11:38:47;;;;;;;5.32;1.20;;;13.40;99.90;;;;;;4979208;28;20198;-64
2022/11/02 11:41:17;;;;;;;8.48;1.50;;;13.50;99.90;;;;;;4980553;28;20206;-64
2022/11/02 11:43:46;;;;;;;3.85;1.20;;;13.50;99.90;;;;;;4965339;28;20234;-64
2022/11/02 11:46:15;;;;;;;4.03;1.48;;;13.70;99.90;;;;;;4980193;28;20227;-64
2022/11/02 11:48:46;;;;;;;7.35;1.65;;;13.80;99.90;;;;;;4983021;28;20213;-64
2022/11/02 11:51:29;;;;;;;1.50;1.13;;;13.80;99.90;;;;;;4963679;28;20207;-64
2022/11/02 11:54:23;;;;;;;5.13;1.08;;;13.90;99.90;;;;;;4987230;28;20211;-64
2022/11/02 11:56:54;;;;;;;11.82;1.23;;;13.90;99.90;;;;;;4980534;28;20673;-65
2022/11/02 11:59:26;;;;;;;2.90;1.20;;;13.90;99.90;;;;;;4964970;28;20225;-65
2022/11/02 12:01:57;;;;;;;2.47;1.00;;;13.80;99.90;;;;;;4987443;28;20261;-65
2022/11/02 12:04:29;;;;;;;2.78;1.17;;;13.80;99.90;;;;;;4971096;28;20398;-64
2022/11/02 12:07:21;;;;;;;5.53;1.40;;;13.80;99.90;;;;;;4963868;28;20206;-64
2022/11/02 12:09:54;;;;;;;6.50;1.02;;;13.80;99.90;;;;;;4988438;28;20224;-64
2022/11/02 12:12:31;;;;;;;5.32;1.33;;;13.80;99.90;;;;;;4974965;28;20199;-65
2022/11/02 12:15:12;;;;;;;3.97;0.98;;;13.70;99.90;;;;;;4977016;28;20669;-64
2022/11/02 12:17:52;;;;;;;11.10;1.45;;;13.80;99.90;;;;;;4982019;28;20225;-64
2022/11/02 12:20:39;;;;;;;6.15;1.02;;;13.90;99.90;;;;;;4946929;28;20912;-64
2022/11/02 12:23:17;;;;;;;5.32;1.10;;;13.90;99.90;;;;;;4988779;28;20224;-64
2022/11/02 12:25:52;;;;;;;9.93;1.63;;;14.00;99.90;;;;;;4985108;28;20354;-64
2022/11/02 12:28:33;;;;;;;4.38;1.05;;;14.00;99.90;;;;;;4968921;28;20219;-64
2022/11/02 12:31:13;;;;;;;2.92;0.77;;;13.90;99.90;;;;;;4953833;28;20208;-64
2022/11/02 12:33:50;;;;;;;7.30;1.27;;;13.80;99.90;;;;;;4962285;28;20204;-64
2022/11/02 12:36:30;;;;;;;6.82;1.00;;;13.80;99.90;;;;;;4954343;28;20211;-64
2022/11/02 12:39:03;;;;;;;8.93;1.50;;;13.70;99.90;;;;;;4970913;28;20210;-64
2022/11/02 12:41:52;;;;;;;8.18;1.63;;;13.60;99.90;;;;;;4973044;28;20210;-64
2022/11/02 12:44:44;;;;;;;4.55;1.27;;;13.70;99.90;;;;;;4961845;28;20797;-64
2022/11/02 12:47:25;;;;;;;4.55;1.60;;;13.80;99.90;;;;;;4947939;28;20216;-64
2022/11/02 12:50:03;;;;;;;7.78;1.50;;;13.80;99.90;;;;;;4957766;28;20215;-64
2022/11/02 12:52:43;;;;;;;4.70;1.67;;;13.90;99.90;;;;;;4952002;28;20211;-64
2022/11/02 12:55:16;;;;;;;4.35;1.60;;;14.00;99.90;;;;;;4963376;28;20205;-64
2022/11/02 12:57:43;;;;;;;4.07;1.48;;;14.00;99.90;;;;;;4967315;28;20487;-64
2022/11/02 13:00:19;;;;;;;4.63;1.85;;;14.00;99.90;;;;;;4957164;28;20203;-64
2022/11/02 13:02:53;;;;;;;3.45;1.30;;;14.00;99.90;;;;;;4922697;28;20219;-64
2022/11/02 13:05:23;;;;;;;4.53;1.25;;;13.90;99.90;;;;;;4960653;28;20227;-64
2022/11/02 13:07:58;;;;;;;9.05;1.55;;;14.00;99.90;;;;;;4941144;28;20208;-64
2022/11/02 13:10:30;;;;;;;4.65;1.55;;;13.90;99.90;;;;;;4964211;28;20612;-64
2022/11/02 13:12:59;;;;;;;4.28;1.52;;;13.90;99.90;;;;;;4963006;28;20265;-64
2022/11/02 13:15:29;;;;;;;5.90;1.48;;;14.00;99.90;;;;;;4954804;28;20200;-65
2022/11/02 13:17:59;;;;;;;3.90;1.20;;;13.80;99.90;;;;;;4949024;28;20222;-64
2022/11/02 13:20:29;;;;;;;2.95;1.52;;;13.80;99.90;;;;;;4961782;28;20203;-64